createdAt,value
2023-05-14T00:01:08.366Z,13.85
2023-05-14T00:06:11.985Z,13.73
2023-05-14T00:11:16.063Z,13.24
2023-05-14T00:16:21.069Z,13.98
2023-05-14T00:21:24.693Z,12.96
2023-05-14T00:26:28.292Z,12.81
2023-05-14T00:31:33.521Z,12.25
2023-05-14T00:36:37.161Z,13.61
2023-05-14T00:41:41.188Z,13.81
2023-05-14T00:46:46.260Z,13.60
2023-05-14T00:51:50.227Z,13.13
2023-05-14T00:56:54.213Z,13.72
2023-05-14T01:01:59.294Z,13.92
2023-05-14T01:07:12.568Z,13.16
2023-05-14T01:12:22.660Z,13.67
2023-05-14T01:17:33.859Z,13.62
2023-05-14T01:22:39.204Z,13.37
2023-05-14T01:27:51.386Z,13.87
2023-05-14T01:32:57.473Z,12.88
2023-05-14T01:38:32.760Z,13.41
2023-05-14T01:43:37.435Z,13.56
2023-05-14T01:48:41.452Z,13.49
2023-05-14T01:53:46.956Z,11.65
2023-05-14T01:58:50.639Z,13.36
2023-05-14T02:03:54.229Z,13.11
2023-05-14T02:09:00.309Z,13.08
2023-05-14T02:14:04.136Z,13.00
2023-05-14T02:19:07.868Z,11.77
2023-05-14T02:24:13.052Z,13.04
2023-05-14T02:29:16.703Z,10.78
2023-05-14T02:34:20.375Z,11.51
2023-05-14T02:39:25.853Z,12.38
2023-05-14T02:44:29.527Z,12.77
2023-05-14T02:49:33.347Z,12.51
2023-05-14T02:54:38.431Z,12.19
2023-05-14T02:59:42.091Z,12.37
2023-05-14T03:04:45.732Z,12.06
2023-05-14T03:09:50.992Z,11.77
2023-05-14T03:14:54.634Z,12.04
2023-05-14T03:19:58.306Z,12.25
2023-05-14T03:25:03.276Z,12.44
2023-05-14T03:30:08.422Z,12.40
2023-05-14T03:35:12.133Z,12.39
2023-05-14T03:40:19.912Z,12.38
2023-05-14T03:45:23.782Z,11.86
2023-05-14T03:50:27.462Z,12.37
2023-05-14T03:55:32.701Z,12.16
2023-05-14T04:00:36.357Z,10.44
2023-05-14T04:05:40.707Z,12.08
2023-05-14T04:10:46.413Z,12.33
2023-05-14T04:15:50.043Z,12.18
2023-05-14T04:20:53.841Z,12.29
2023-05-14T04:25:59.165Z,12.04
2023-05-14T04:31:02.775Z,12.27
2023-05-14T04:36:07.273Z,12.05
2023-05-14T04:41:12.287Z,12.32
2023-05-14T04:46:16.146Z,12.31
2023-05-14T04:51:19.835Z,12.13
2023-05-14T04:56:25.076Z,11.70
2023-05-14T05:01:28.736Z,10.85
2023-05-14T05:06:32.686Z,12.26
2023-05-14T05:11:37.938Z,12.15
2023-05-14T05:16:42.515Z,12.24
2023-05-14T05:21:46.319Z,11.93
2023-05-14T05:26:56.964Z,11.32
2023-05-14T05:32:26.434Z,12.18
2023-05-14T05:37:31.865Z,12.20
2023-05-14T05:42:37.048Z,12.24
2023-05-14T05:47:40.963Z,12.00
2023-05-14T05:52:44.800Z,12.07
2023-05-14T05:57:49.909Z,12.39
2023-05-14T06:02:53.781Z,12.02
2023-05-14T06:07:57.619Z,12.18
2023-05-14T06:13:03.049Z,11.74
2023-05-14T06:18:07.068Z,12.52
2023-05-14T06:23:12.439Z,11.50
2023-05-14T06:28:17.709Z,12.08
2023-05-14T06:33:29.728Z,12.30
2023-05-14T06:38:33.588Z,12.76
2023-05-14T06:43:38.930Z,12.51
2023-05-14T06:48:42.744Z,12.83
2023-05-14T06:53:46.885Z,12.84
2023-05-14T06:58:51.917Z,13.12
2023-05-14T07:03:56.366Z,12.73
2023-05-14T07:09:06.496Z,12.57
2023-05-14T07:14:11.488Z,13.07
2023-05-14T07:19:15.266Z,12.53
2023-05-14T07:24:18.953Z,13.22
2023-05-14T07:29:25.192Z,12.76
2023-05-14T07:34:28.751Z,13.03
2023-05-14T07:39:32.367Z,13.55
2023-05-14T07:44:37.286Z,13.92
2023-05-14T07:49:40.805Z,14.09
2023-05-14T07:54:44.308Z,14.16
2023-05-14T07:59:49.828Z,14.43
2023-05-14T08:04:53.681Z,14.80
2023-05-14T08:09:57.352Z,14.95
2023-05-14T08:15:02.325Z,15.01
2023-05-14T08:20:08.515Z,15.08
2023-05-14T08:25:12.202Z,14.55
2023-05-14T08:30:18.095Z,15.33
2023-05-14T08:35:21.673Z,15.46
2023-05-14T08:40:25.564Z,15.53
2023-05-14T08:45:33.969Z,15.76
2023-05-14T08:50:37.945Z,15.63
2023-05-14T08:55:41.737Z,15.56
2023-05-14T09:00:46.605Z,16.08
2023-05-14T09:05:52.643Z,15.64
2023-05-14T09:10:56.181Z,14.80
2023-05-14T09:16:01.949Z,16.59
2023-05-14T09:21:06.214Z,15.89
2023-05-14T09:26:09.846Z,16.79
2023-05-14T09:31:14.791Z,17.17
2023-05-14T09:36:18.838Z,17.43
2023-05-14T09:41:23.077Z,17.13
2023-05-14T09:46:30.249Z,17.57
2023-05-14T09:51:33.926Z,17.73
2023-05-14T09:56:38.344Z,17.94
2023-05-14T10:01:44.794Z,17.02
2023-05-14T10:06:52.279Z,17.98
2023-05-14T10:12:02.146Z,18.13
2023-05-14T10:17:07.823Z,17.63
2023-05-14T10:22:13.815Z,18.19
2023-05-14T10:27:17.842Z,17.35
2023-05-14T10:32:24.436Z,18.07
2023-05-14T10:37:28.387Z,18.17
2023-05-14T10:42:35.948Z,18.30
2023-05-14T10:47:42.939Z,18.04
2023-05-14T10:52:47.195Z,18.41
2023-05-14T10:57:50.823Z,18.58
2023-05-14T11:03:09.920Z,16.67
2023-05-14T11:08:14.771Z,18.43
2023-05-14T11:13:21.089Z,18.49
2023-05-14T11:18:29.835Z,18.93
2023-05-14T11:23:33.618Z,18.07
2023-05-14T11:28:38.722Z,18.98
2023-05-14T11:33:43.811Z,18.74
2023-05-14T11:38:49.519Z,18.94
2023-05-14T11:43:53.255Z,18.91
2023-05-14T11:48:58.105Z,18.63
2023-05-14T11:54:14.472Z,19.21
2023-05-14T11:59:19.633Z,19.72
2023-05-14T12:04:24.948Z,20.28
2023-05-14T12:09:33.367Z,19.88
2023-05-14T12:14:39.752Z,20.33
2023-05-14T12:19:49.383Z,18.43
2023-05-14T12:24:57.651Z,20.52
2023-05-14T12:30:19.353Z,20.39
2023-05-14T12:35:25.453Z,18.09
2023-05-14T12:40:29.202Z,19.19
2023-05-14T12:45:32.884Z,20.14
2023-05-14T12:50:37.976Z,20.60
2023-05-14T12:55:48.786Z,20.52
2023-05-14T13:00:57.005Z,18.82
2023-05-14T13:06:04.662Z,21.13
2023-05-14T13:11:08.597Z,21.02
2023-05-14T13:16:16.849Z,21.35
2023-05-14T13:21:22.264Z,21.14
2023-05-14T13:26:28.277Z,21.32
2023-05-14T13:31:31.956Z,21.25
2023-05-14T13:36:39.696Z,20.90
2023-05-14T13:41:45.513Z,21.33
2023-05-14T13:46:49.319Z,21.46
2023-05-14T13:51:54.487Z,21.21
2023-05-14T13:57:03.993Z,21.60
2023-05-14T14:02:08.449Z,21.10
2023-05-14T14:07:13.409Z,21.67
2023-05-14T14:12:17.384Z,21.08
2023-05-14T14:17:21.117Z,21.50
2023-05-14T14:22:28.173Z,20.23
2023-05-14T14:27:36.098Z,21.34
2023-05-14T14:32:39.938Z,20.39
2023-05-14T14:37:49.263Z,19.38
2023-05-14T14:43:00.860Z,19.55
2023-05-14T14:48:24.425Z,21.46
2023-05-14T14:53:30.891Z,19.36
2023-05-14T14:58:34.580Z,20.31
2023-05-14T15:03:38.421Z,21.10
2023-05-14T15:08:58.851Z,21.56
2023-05-14T15:14:03.305Z,20.65
2023-05-14T15:19:06.937Z,20.32
2023-05-14T15:24:14.308Z,20.11
2023-05-14T15:29:43.823Z,21.54
2023-05-14T15:34:53.490Z,21.18
2023-05-14T15:40:01.210Z,20.03
2023-05-14T15:45:05.491Z,21.29
2023-05-14T15:50:10.336Z,20.59
2023-05-14T15:55:15.325Z,21.01
2023-05-14T16:00:26.006Z,19.94
2023-05-14T16:05:33.627Z,21.09
2023-05-14T16:10:45.808Z,18.31
2023-05-14T16:15:52.880Z,20.71
2023-05-14T16:20:56.544Z,19.99
2023-05-14T16:26:01.514Z,20.56
2023-05-14T16:31:05.226Z,20.81
2023-05-14T16:36:09.028Z,20.00
2023-05-14T16:41:14.109Z,20.84
2023-05-14T16:46:17.929Z,21.40
2023-05-14T16:51:21.520Z,21.09
2023-05-14T16:56:26.579Z,21.32
2023-05-14T17:01:30.314Z,22.14
2023-05-14T17:06:34.090Z,22.11
2023-05-14T17:11:40.201Z,21.73
2023-05-14T17:16:43.777Z,21.93
2023-05-14T17:21:47.230Z,21.58
2023-05-14T17:26:52.147Z,21.86
2023-05-14T17:31:55.861Z,21.51
2023-05-14T17:37:00.873Z,21.62
2023-05-14T17:42:06.951Z,21.25
2023-05-14T17:47:10.668Z,21.48
2023-05-14T17:52:14.341Z,21.24
2023-05-14T17:57:19.429Z,20.47
2023-05-14T18:02:22.929Z,20.96
2023-05-14T18:07:26.689Z,20.36
2023-05-14T18:12:31.843Z,20.59
2023-05-14T18:17:35.851Z,20.06
2023-05-14T18:22:39.489Z,19.95
2023-05-14T18:27:45.585Z,19.96
2023-05-14T18:32:51.928Z,19.94
2023-05-14T18:37:56.072Z,19.80
2023-05-14T18:43:01.224Z,19.71
2023-05-14T18:48:05.747Z,18.66
2023-05-14T18:53:09.635Z,19.25
2023-05-14T18:58:15.447Z,19.70
2023-05-14T19:03:20.154Z,19.42
2023-05-14T19:08:24.068Z,19.01
2023-05-14T19:13:30.463Z,19.39
2023-05-14T19:18:34.503Z,18.81
2023-05-14T19:23:38.613Z,18.66
2023-05-14T19:28:43.867Z,18.78
2023-05-14T19:33:47.705Z,17.35
2023-05-14T19:38:51.554Z,17.41
2023-05-14T19:43:56.713Z,17.69
2023-05-14T19:49:00.546Z,17.71
2023-05-14T19:54:04.746Z,17.77
2023-05-14T19:59:09.911Z,15.33
2023-05-14T20:04:14.127Z,14.66
2023-05-14T20:09:20.346Z,17.12
2023-05-14T20:14:25.688Z,16.18
2023-05-14T20:19:29.796Z,17.05
2023-05-14T20:24:33.953Z,16.24
2023-05-14T20:29:39.617Z,14.33
2023-05-14T20:34:45.580Z,17.22
2023-05-14T20:39:55.562Z,16.70
2023-05-14T20:45:07.799Z,15.86
2023-05-14T20:50:14.974Z,16.41
2023-05-14T20:55:19.288Z,14.43
2023-05-14T21:00:30.572Z,16.36
2023-05-14T21:05:35.269Z,14.43
2023-05-14T21:10:39.819Z,15.17
2023-05-14T21:15:45.813Z,14.45
2023-05-14T21:20:57.426Z,14.32
2023-05-14T21:31:43.384Z,14.67
2023-05-14T21:36:50.084Z,14.76
2023-05-14T21:41:54.894Z,12.48
2023-05-14T21:47:03.165Z,12.24
2023-05-14T21:52:07.362Z,15.19
2023-05-14T21:57:13.051Z,13.05
2023-05-14T22:02:23.560Z,15.10
2023-05-14T22:07:27.748Z,11.83
2023-05-14T22:12:36.112Z,13.31
2023-05-14T22:17:44.292Z,14.63
2023-05-14T22:22:48.591Z,14.48
2023-05-14T22:27:52.673Z,12.97
2023-05-14T22:33:03.360Z,11.38
2023-05-14T22:38:15.892Z,13.19
2023-05-14T22:43:19.891Z,13.18
2023-05-14T22:48:27.277Z,12.79
2023-05-14T22:53:40.950Z,14.21
2023-05-14T22:58:46.864Z,13.19
2023-05-14T23:03:54.351Z,12.29
2023-05-14T23:08:58.291Z,12.40
2023-05-14T23:14:08.309Z,13.23
2023-05-14T23:19:19.073Z,12.58
2023-05-14T23:24:23.325Z,11.86
2023-05-14T23:29:27.157Z,12.46
2023-05-14T23:34:35.956Z,11.44
2023-05-14T23:39:40.581Z,13.23
2023-05-14T23:44:44.369Z,11.78
2023-05-14T23:49:49.539Z,13.73
2023-05-14T23:55:00.529Z,14.27
